Time,TemperatureF,DewpointF,PressureIn,WindDirection,WindDirectionDegrees,WindSpeedMPH,WindSpeedGustMPH,Humidity,HourlyPrecipIn,Conditions,Clouds,dailyrainin,SolarRadiationWatts/m^2,SoftwareType,DateUTC
2013-04-16 00:00:00,71.0,70.0,-100.00,ESE,109,3.0,-999.0,94,-99.99,,,-99.99,0.000000,,2013-04-16 05:00:00,
2013-04-16 00:52:00,71.0,70.0,-100.00,ESE,109,3.0,-999.0,94,-99.99,,,-99.99,0.000000,,2013-04-16 05:52:00,
2013-04-16 03:00:00,72.0,71.0,-100.00,SE,138,4.0,-999.0,97,-99.99,,,-99.99,0.000000,,2013-04-16 08:00:00,
2013-04-16 03:52:00,72.0,71.0,-100.00,SE,138,4.0,-999.0,97,-99.99,,,-99.99,0.000000,,2013-04-16 08:52:00,
2013-04-16 04:00:00,72.0,71.0,-100.00,ESE,121,3.0,-999.0,98,-99.99,,,-99.99,0.000000,,2013-04-16 09:00:00,
2013-04-16 04:53:00,72.0,71.0,-100.00,ESE,121,3.0,-999.0,98,-99.99,,,-99.99,0.000000,,2013-04-16 09:53:00,
2013-04-16 05:00:00,72.0,71.0,-100.00,SE,124,3.0,-999.0,99,-99.99,,,-99.99,0.000000,,2013-04-16 10:00:00,
2013-04-16 05:53:00,72.0,71.0,-100.00,SE,124,3.0,-999.0,99,-99.99,,,-99.99,0.000000,,2013-04-16 10:53:00,
2013-04-16 06:00:00,71.0,71.0,-100.00,SE,133,3.0,-999.0,99,-99.99,,,-99.99,0.000000,,2013-04-16 11:00:00,
2013-04-16 06:53:00,71.0,71.0,-100.00,SE,133,3.0,-999.0,99,-99.99,,,-99.99,0.000000,,2013-04-16 11:53:00,
2013-04-16 07:00:00,72.0,71.0,-100.00,SE,132,2.0,-999.0,99,-99.99,,,-99.99,4.070000,,2013-04-16 12:00:00,
2013-04-16 07:52:00,72.0,71.0,-100.00,SE,132,2.0,-999.0,99,-99.99,,,-99.99,4.070000,,2013-04-16 12:52:00,
2013-04-16 08:00:00,73.0,72.0,-100.00,ESE,122,3.0,-999.0,96,-99.99,,,-99.99,61.049999,,2013-04-16 13:00:00,
2013-04-16 08:52:00,73.0,72.0,-100.00,ESE,122,3.0,-999.0,96,-99.99,,,-99.99,61.049999,,2013-04-16 13:52:00,
2013-04-16 09:00:00,74.0,72.0,-100.00,SE,131,4.0,-999.0,92,-99.99,,,-99.99,163.399994,,2013-04-16 14:00:00,
2013-04-16 09:52:00,74.0,72.0,-100.00,SE,131,4.0,-999.0,92,-99.99,,,-99.99,163.399994,,2013-04-16 14:52:00,
2013-04-16 10:00:00,77.0,73.0,-100.00,SSE,155,5.0,-999.0,88,-99.99,,,-99.99,279.019989,,2013-04-16 15:00:00,
2013-04-16 10:53:00,77.0,73.0,-100.00,SSE,155,5.0,-999.0,88,-99.99,,,-99.99,279.019989,,2013-04-16 15:53:00,
2013-04-16 11:00:00,77.0,72.0,-100.00,SE,140,5.0,-999.0,84,-99.99,,,-99.99,484.600006,,2013-04-16 16:00:00,
2013-04-16 11:53:00,77.0,72.0,-100.00,SE,140,5.0,-999.0,84,-99.99,,,-99.99,484.600006,,2013-04-16 16:53:00,
2013-04-16 12:00:00,79.0,72.0,-100.00,ESE,115,4.0,-999.0,81,-99.99,,,-99.99,299.250000,,2013-04-16 17:00:00,
2013-04-16 12:53:00,79.0,72.0,-100.00,ESE,115,4.0,-999.0,81,-99.99,,,-99.99,299.250000,,2013-04-16 17:53:00,
2013-04-16 13:00:00,80.0,72.0,-100.00,SSE,148,6.0,-999.0,76,-99.99,,,-99.99,464.549988,,2013-04-16 18:00:00,
2013-04-16 13:52:00,80.0,72.0,-100.00,SSE,148,6.0,-999.0,76,-99.99,,,-99.99,464.549988,,2013-04-16 18:52:00,
2013-04-16 14:00:00,81.0,71.0,-100.00,SSE,158,6.0,-999.0,72,-99.99,,,-99.99,722.000000,,2013-04-16 19:00:00,
2013-04-16 14:52:00,81.0,71.0,-100.00,SSE,158,6.0,-999.0,72,-99.99,,,-99.99,722.000000,,2013-04-16 19:52:00,
2013-04-16 15:00:00,80.0,72.0,-100.00,SE,146,6.0,-999.0,75,-99.99,,,-99.99,643.630005,,2013-04-16 20:00:00,
2013-04-16 15:52:00,80.0,72.0,-100.00,SE,146,6.0,-999.0,75,-99.99,,,-99.99,643.630005,,2013-04-16 20:52:00,
2013-04-16 16:00:00,80.0,71.0,-100.00,SSE,157,6.0,-999.0,75,-99.99,,,-99.99,543.880005,,2013-04-16 21:00:00,
2013-04-16 16:53:00,80.0,71.0,-100.00,SSE,157,6.0,-999.0,75,-99.99,,,-99.99,543.880005,,2013-04-16 21:53:00,
2013-04-16 17:00:00,79.0,71.0,-100.00,SE,146,5.0,-999.0,78,-99.99,,,-99.99,399.000000,,2013-04-16 22:00:00,
2013-04-16 17:52:00,79.0,71.0,-100.00,SE,146,5.0,-999.0,78,-99.99,,,-99.99,399.000000,,2013-04-16 22:52:00,
2013-04-16 18:00:00,78.0,71.0,-100.00,SE,142,5.0,-999.0,79,-99.99,,,-99.99,281.390015,,2013-04-16 23:00:00,
2013-04-16 18:52:00,78.0,71.0,-100.00,SE,142,5.0,-999.0,79,-99.99,,,-99.99,281.390015,,2013-04-16 23:52:00,
2013-04-16 19:00:00,74.0,70.0,-100.00,SE,133,3.0,-999.0,87,-99.99,,,-99.99,84.360001,,2013-04-17 00:00:00,
2013-04-16 19:52:00,74.0,70.0,-100.00,SE,133,3.0,-999.0,87,-99.99,,,-99.99,84.360001,,2013-04-17 00:52:00,
2013-04-16 20:00:00,72.0,70.0,-100.00,SE,124,2.0,-999.0,92,-99.99,,,-99.99,4.040000,,2013-04-17 01:00:00,
2013-04-16 20:52:00,72.0,70.0,-100.00,SE,124,2.0,-999.0,92,-99.99,,,-99.99,4.040000,,2013-04-17 01:52:00,
2013-04-16 21:00:00,71.0,69.0,-100.00,East,99,2.0,-999.0,94,-99.99,,,-99.99,0.000000,,2013-04-17 02:00:00,
2013-04-16 21:52:00,71.0,69.0,-100.00,East,99,2.0,-999.0,94,-99.99,,,-99.99,0.000000,,2013-04-17 02:52:00,
2013-04-16 22:00:00,68.0,67.0,-100.00,ENE,65,1.0,-999.0,96,-99.99,,,-99.99,0.000000,,2013-04-17 03:00:00,
2013-04-16 22:53:00,68.0,67.0,-100.00,ENE,65,1.0,-999.0,96,-99.99,,,-99.99,0.000000,,2013-04-17 03:53:00,